Time;durP1;ratioP1;P1;durP2;ratioP2;P2;SDS_P1;SDS_P2;PMS_P1;PMS_P2;Temp;Humidity;BMP_temperature;BMP_pressure;BME280_temperature;BME280_humidity;BME280_pressure;Samples;Min_cycle;Max_cycle;Signal;HPM_P1;HPM_P2
2022/05/16 00:02:24;;;;;;;;;3.00;3.00;;;;;20.68;61.52;100627.59;5074440;28;45661;-61
2022/05/16 00:04:49;;;;;;;;;7.00;7.00;;;;;20.71;61.98;100629.19;5075036;28;45647;-61
2022/05/16 00:07:16;;;;;;;;;5.33;5.00;;;;;20.67;62.10;100625.06;5074146;28;45508;-61
2022/05/16 00:09:41;;;;;;;;;5.00;4.00;;;;;20.70;61.63;100643.66;5074184;28;45493;-61
2022/05/16 00:12:07;;;;;;;;;4.00;4.00;;;;;20.70;61.89;100654.47;5072632;28;45431;-62
2022/05/16 00:14:33;;;;;;;;;8.00;6.67;;;;;20.68;65.24;100665.44;5076349;27;45224;-64
2022/05/16 00:16:59;;;;;;;;;7.33;4.33;;;;;20.51;68.76;100686.00;5069125;27;46137;-63
2022/05/16 00:19:24;;;;;;;;;5.00;5.00;;;;;20.45;66.16;100694.69;5054469;28;45210;-68
2022/05/16 00:21:49;;;;;;;;;7.00;5.67;;;;;20.32;72.34;100675.22;5056250;28;45514;-66
2022/05/16 00:24:15;;;;;;;;;9.00;8.00;;;;;20.00;77.66;100652.13;5074509;28;45993;-67
2022/05/16 00:26:40;;;;;;;;;8.33;6.33;;;;;19.71;75.18;100627.03;5074680;28;46155;-65
2022/05/16 00:29:06;;;;;;;;;5.00;4.00;;;;;19.61;75.16;100612.69;5075163;28;45245;-64
2022/05/16 00:31:31;;;;;;;;;8.33;7.00;;;;;19.56;74.57;100617.69;5074251;27;45306;-63
2022/05/16 00:33:57;;;;;;;;;6.33;6.33;;;;;19.57;75.55;100617.53;5076461;27;45628;-63
2022/05/16 00:36:23;;;;;;;;;8.00;7.00;;;;;19.55;73.21;100622.22;5075976;27;46240;-63
2022/05/16 00:38:50;;;;;;;;;6.67;6.33;;;;;19.53;73.08;100640.38;5074951;27;45328;-60
2022/05/16 00:41:16;;;;;;;;;7.33;5.00;;;;;19.56;72.64;100656.31;5075788;27;45752;-61
2022/05/16 00:43:44;;;;;;;;;7.67;6.67;;;;;19.54;72.93;100652.88;5086628;27;45647;-61
2022/05/16 00:46:11;;;;;;;;;7.33;5.00;;;;;19.52;72.67;100637.78;5089989;27;46091;-62
2022/05/16 00:48:36;;;;;;;;;8.67;6.67;;;;;19.50;72.90;100642.47;5075042;27;45249;-65
2022/05/16 00:51:04;;;;;;;;;5.67;5.33;;;;;19.43;74.03;100634.97;5079938;27;45389;-62
2022/05/16 00:53:30;;;;;;;;;12.00;6.00;;;;;19.43;73.50;100634.13;5085484;27;45337;-63
2022/05/16 00:55:55;;;;;;;;;8.67;8.67;;;;;19.38;73.77;100630.97;5078609;27;46178;-62
2022/05/16 00:58:20;;;;;;;;;6.00;6.00;;;;;19.40;73.95;100637.97;5078689;28;45360;-61
2022/05/16 01:00:48;;;;;;;;;11.67;7.00;;;;;19.36;74.26;100628.44;5078312;27;45431;-62
2022/05/16 01:06:05;;;;;;;;;4.00;4.00;;;;;19.31;72.78;100622.63;5073614;28;45511;-62
2022/05/16 01:08:33;;;;;;;;;5.00;5.00;;;;;19.30;73.55;100611.97;5061687;28;45354;-62
2022/05/16 01:11:03;;;;;;;;;6.00;6.00;;;;;19.31;73.44;100611.00;5078682;27;45206;-62
2022/05/16 01:13:30;;;;;;;;;8.00;5.67;;;;;19.31;73.49;100608.28;5077801;27;45427;-62
2022/05/16 01:15:57;;;;;;;;;5.33;5.00;;;;;19.32;73.35;100610.84;5071400;28;46258;-61
2022/05/16 01:18:24;;;;;;;;;5.33;5.33;;;;;19.31;72.91;100617.22;5077179;27;45605;-66
2022/05/16 01:21:02;;;;;;;;;5.00;5.00;;;;;19.32;71.92;100621.63;5075141;27;45385;-61
2022/05/16 01:23:32;;;;;;;;;5.67;5.67;;;;;19.27;72.31;100615.81;5077867;28;45584;-63
2022/05/16 01:26:00;;;;;;;;;7.00;5.00;;;;;19.33;72.44;100612.53;5077319;27;46263;-64
2022/05/16 01:28:26;;;;;;;;;5.00;5.00;;;;;19.26;70.56;100622.19;5077503;27;45494;-65
2022/05/16 01:30:54;;;;;;;;;6.00;5.00;;;;;19.26;72.05;100629.41;5078277;27;45317;-63
2022/05/16 01:33:22;;;;;;;;;4.33;3.67;;;;;19.26;72.14;100622.19;5077304;27;45577;-61
2022/05/16 01:35:48;;;;;;;;;5.67;5.67;;;;;19.23;71.01;100627.00;5077200;27;46387;-62
2022/05/16 01:38:19;;;;;;;;;5.67;4.33;;;;;19.18;70.72;100613.09;5076184;27;45313;-63
2022/05/16 01:40:58;;;;;;;;;6.00;6.00;;;;;19.16;71.44;100629.44;5069731;28;45479;-65
2022/05/16 01:43:28;;;;;;;;;5.33;5.33;;;;;19.10;71.91;100638.91;5076684;28;45405;-64
2022/05/16 01:45:53;;;;;;;;;10.00;6.00;;;;;19.13;71.20;100643.16;5076974;27;45441;-62
2022/05/16 01:48:20;;;;;;;;;5.00;4.00;;;;;19.12;72.01;100647.69;5075664;28;45433;-62
2022/05/16 01:50:47;;;;;;;;;6.00;6.00;;;;;19.15;71.63;100635.81;5078406;27;45499;-61
2022/05/16 01:53:14;;;;;;;;;5.00;5.00;;;;;19.15;71.64;100630.44;5075182;27;45630;-63
2022/05/16 01:55:39;;;;;;;;;6.00;6.00;;;;;19.16;71.14;100640.22;5076391;28;45397;-63
2022/05/16 01:58:06;;;;;;;;;7.67;6.00;;;;;19.14;71.06;100626.00;5075891;27;45386;-63
2022/05/16 02:00:32;;;;;;;;;8.33;6.67;;;;;19.19;72.36;100641.78;5077982;27;45398;-62
2022/05/16 02:02:59;;;;;;;;;6.00;5.00;;;;;19.20;71.31;100644.31;5074676;28;45472;-61
2022/05/16 02:05:25;;;;;;;;;6.00;6.00;;;;;19.19;70.54;100642.63;5076848;27;46198;-62
2022/05/16 02:07:51;;;;;;;;;5.00;5.00;;;;;19.20;71.17;100648.88;5075712;28;45523;-61
2022/05/16 02:10:20;;;;;;;;;7.00;5.67;;;;;19.20;71.66;100644.31;5074265;28;45455;-62
2022/05/16 02:12:46;;;;;;;;;6.00;6.00;;;;;19.18;71.09;100640.91;5077652;27;45337;-64
2022/05/16 02:15:15;;;;;;;;;9.67;8.00;;;;;19.15;70.03;100646.59;5074838;27;45436;-62
2022/05/16 02:17:40;;;;;;;;;9.00;7.00;;;;;19.07;70.10;100641.03;5074601;28;45450;-61
2022/05/16 02:20:07;;;;;;;;;8.67;7.00;;;;;19.08;70.54;100634.66;5073824;27;45575;-61
2022/05/16 02:25:17;;;;;;;;;7.00;6.00;;;;;19.14;71.14;100647.56;5075861;27;45460;-63
2022/05/16 02:27:43;;;;;;;;;7.33;6.33;;;;;19.15;70.33;100647.44;5077411;27;45397;-61
2022/05/16 02:30:10;;;;;;;;;10.33;6.67;;;;;19.14;70.92;100636.78;5076415;28;45278;-60
2022/05/16 02:32:35;;;;;;;;;7.00;7.00;;;;;19.15;70.53;100638.50;5075262;28;46954;-63
2022/05/16 02:35:01;;;;;;;;;8.33;6.67;;;;;19.15;70.32;100647.44;5074764;28;46173;-62
2022/05/16 02:37:26;;;;;;;;;8.67;7.33;;;;;19.18;70.68;100656.25;5074719;27;45443;-62
2022/05/16 02:39:52;;;;;;;;;6.67;5.00;;;;;19.18;70.30;100651.69;5075516;28;45606;-62
2022/05/16 02:42:17;;;;;;;;;10.00;9.00;;;;;19.12;70.56;100644.16;5076022;28;45518;-61
2022/05/16 02:44:43;;;;;;;;;9.00;9.00;;;;;19.12;70.38;100655.78;5075615;28;46020;-61
2022/05/16 02:47:14;;;;;;;;;9.00;8.00;;;;;19.11;70.00;100650.53;5073891;28;46226;-62
2022/05/16 02:49:40;;;;;;;;;8.67;7.67;;;;;19.15;70.57;100654.69;5073544;28;45648;-60
2022/05/16 02:52:05;;;;;;;;;10.00;9.00;;;;;19.13;70.79;100648.56;5075193;28;45617;-63
2022/05/16 02:54:31;;;;;;;;;10.67;7.00;;;;;19.15;71.68;100652.00;5074830;27;46207;-62
2022/05/16 02:56:58;;;;;;;;;8.67;8.67;;;;;19.15;70.94;100657.38;5072226;28;45456;-64
2022/05/16 02:59:26;;;;;;;;;9.00;9.00;;;;;19.19;71.12;100658.78;5073515;28;47122;-63
2022/05/16 03:01:51;;;;;;;;;10.00;7.33;;;;;19.19;70.57;100658.78;5074633;27;45483;-61
2022/05/16 03:04:16;;;;;;;;;8.67;8.67;;;;;19.18;71.18;100662.50;5075276;28;45698;-62
2022/05/16 03:06:42;;;;;;;;;7.33;7.33;;;;;19.21;70.35;100655.97;5074740;28;45507;-61
2022/05/16 03:09:08;;;;;;;;;13.00;10.00;;;;;19.18;69.88;100643.63;5074691;28;45354;-60
2022/05/16 03:11:33;;;;;;;;;9.67;9.67;;;;;19.19;70.31;100648.00;5081393;27;45404;-62
2022/05/16 03:13:58;;;;;;;;;12.00;11.00;;;;;19.18;70.07;100659.78;5081791;27;47395;-64
2022/05/16 03:16:24;;;;;;;;;10.67;9.67;;;;;19.18;69.98;100659.78;5076600;27;45177;-64
2022/05/16 03:18:49;;;;;;;;;9.67;9.67;;;;;19.21;69.77;100667.59;5075426;27;45230;-62
2022/05/16 03:21:15;;;;;;;;;11.00;11.00;;;;;19.18;70.28;100667.03;5075510;28;45577;-62
2022/05/16 03:23:41;;;;;;;;;16.00;13.00;;;;;19.22;69.87;100685.47;5074192;27;47512;-61
2022/05/16 03:26:06;;;;;;;;;10.67;10.00;;;;;19.20;70.43;100686.63;5076290;27;45440;-62
2022/05/16 03:28:32;;;;;;;;;8.67;7.67;;;;;19.20;69.85;100687.47;5073477;28;45323;-61
2022/05/16 03:30:59;;;;;;;;;17.00;11.00;;;;;19.19;70.05;100688.44;5058406;28;45587;-61
2022/05/16 03:33:25;;;;;;;;;14.00;10.67;;;;;19.18;70.11;100678.66;5067586;28;46623;-63
2022/05/16 03:35:55;;;;;;;;;11.67;11.67;;;;;19.23;69.95;100692.56;5074768;28;45478;-64
2022/05/16 03:41:08;;;;;;;;;14.00;11.67;;;;;19.25;70.14;100685.19;5076506;28;45300;-61
2022/05/16 03:43:36;;;;;;;;;12.33;12.33;;;;;19.23;70.12;100681.78;5075088;27;47230;-62
2022/05/16 03:46:01;;;;;;;;;16.33;14.33;;;;;19.20;70.36;100682.06;5074809;27;45325;-62
2022/05/16 03:48:27;;;;;;;;;10.00;10.00;;;;;19.16;70.76;100677.97;5073900;27;45516;-61
2022/05/16 03:50:52;;;;;;;;;14.33;13.33;;;;;19.16;70.61;100691.44;5076303;27;45678;-62
2022/05/16 03:53:17;;;;;;;;;12.33;12.33;;;;;19.15;70.43;100692.44;5089503;27;45645;-61
2022/05/16 03:55:43;;;;;;;;;15.33;11.33;;;;;19.17;70.71;100709.31;5075788;27;45432;-62
2022/05/16 03:58:08;;;;;;;;;11.67;11.67;;;;;19.18;70.85;100720.94;5074045;28;45488;-63
2022/05/16 04:00:34;;;;;;;;;13.00;13.00;;;;;19.11;71.42;100716.09;5074969;28;45464;-65
2022/05/16 04:02:59;;;;;;;;;16.33;12.67;;;;;19.09;70.88;100722.63;5073824;28;45274;-64
2022/05/16 04:05:25;;;;;;;;;14.33;13.33;;;;;19.06;70.63;100728.28;5076035;28;45248;-64
2022/05/16 04:07:51;;;;;;;;;17.33;12.33;;;;;19.02;71.05;100716.09;5074114;28;45199;-64
2022/05/16 04:10:17;;;;;;;;;10.33;10.00;;;;;19.01;71.98;100725.13;5076139;27;45313;-62
2022/05/16 04:12:42;;;;;;;;;15.33;14.00;;;;;18.99;72.01;100727.13;5078486;27;45449;-60
2022/05/16 04:15:09;;;;;;;;;17.00;15.00;;;;;18.96;71.18;100717.47;5074218;28;45312;-62
2022/05/16 04:17:35;;;;;;;;;13.33;13.00;;;;;19.01;71.43;100733.22;5074041;27;45411;-62
2022/05/16 04:20:01;;;;;;;;;14.00;13.67;;;;;18.97;71.50;100731.78;5072978;28;45665;-62
2022/05/16 04:22:27;;;;;;;;;12.00;12.00;;;;;19.02;71.91;100748.44;5076037;27;45535;-61
2022/05/16 04:24:52;;;;;;;;;16.67;16.33;;;;;19.01;71.59;100752.09;5075313;27;45418;-62
2022/05/16 04:27:18;;;;;;;;;16.33;16.33;;;;;19.03;71.02;100755.53;5074684;28;45388;-64
2022/05/16 04:29:43;;;;;;;;;20.33;19.00;;;;;19.03;71.21;100758.22;5078373;27;45463;-63
2022/05/16 04:32:09;;;;;;;;;14.00;12.67;;;;;19.02;71.75;100767.31;5077656;28;45432;-63
2022/05/16 04:34:34;;;;;;;;;16.33;16.00;;;;;19.04;71.84;100762.63;5077700;28;45369;-63
2022/05/16 04:37:00;;;;;;;;;18.00;16.00;;;;;19.04;71.47;100768.00;5078275;28;45303;-63
2022/05/16 04:39:25;;;;;;;;;15.00;15.00;;;;;19.03;71.41;100771.69;5078673;28;45546;-62
2022/05/16 04:44:38;;;;;;;;;22.00;19.67;;;;;19.06;71.45;100790.28;5075056;28;45346;-61
2022/05/16 04:47:04;;;;;;;;;15.00;15.00;;;;;19.06;71.73;100803.78;5078809;27;45470;-64
2022/05/16 04:49:30;;;;;;;;;21.33;18.00;;;;;19.07;71.64;100805.47;5075051;28;45526;-62
2022/05/16 04:51:56;;;;;;;;;18.00;16.33;;;;;19.08;71.47;100815.25;5077661;27;45471;-63
2022/05/16 04:54:21;;;;;;;;;16.33;13.67;;;;;19.08;70.92;100817.97;5073492;27;45541;-62
2022/05/16 04:56:47;;;;;;;;;19.67;17.67;;;;;19.15;71.49;100824.53;5063549;28;45586;-63
2022/05/16 04:59:13;;;;;;;;;18.67;17.33;;;;;19.14;71.27;100833.56;5075031;27;45398;-62
2022/05/16 05:01:39;;;;;;;;;19.33;17.00;;;;;19.16;71.12;100847.81;5075250;27;46173;-62
2022/05/16 05:04:05;;;;;;;;;21.67;18.67;;;;;19.18;70.75;100848.53;5076051;28;45283;-64
2022/05/16 05:06:30;;;;;;;;;25.00;20.00;;;;;19.22;70.69;100860.72;5076685;28;45496;-62
2022/05/16 05:08:56;;;;;;;;;22.00;20.67;;;;;19.16;71.05;100863.97;5076544;27;45446;-62
2022/05/16 05:16:51;;;;;;;;;17.67;17.67;;;;;19.25;69.73;100873.94;5074535;28;45518;-66
2022/05/16 05:19:17;;;;;;;;;20.33;20.33;;;;;19.23;70.18;100870.53;5073250;27;45280;-65
2022/05/16 05:21:42;;;;;;;;;21.00;19.67;;;;;19.24;70.31;100874.06;5074968;28;46052;-66
2022/05/16 05:24:08;;;;;;;;;17.00;15.33;;;;;19.24;70.40;100866.84;5083491;27;45386;-65
2022/05/16 05:26:34;;;;;;;;;20.67;18.67;;;;;19.25;70.38;100865.84;5076911;28;45425;-66
2022/05/16 05:28:59;;;;;;;;;17.00;16.67;;;;;19.30;69.88;100877.09;5077825;28;45615;-62
2022/05/16 05:31:25;;;;;;;;;18.00;17.33;;;;;19.32;70.21;100875.13;5074541;28;46077;-63
2022/05/16 05:33:52;;;;;;;;;18.00;17.00;;;;;19.38;69.87;100884.50;5078131;27;45424;-64
2022/05/16 05:36:17;;;;;;;;;20.67;18.67;;;;;19.38;69.44;100885.34;5074168;27;45416;-62
2022/05/16 05:38:43;;;;;;;;;16.33;16.33;;;;;19.38;69.10;100893.44;5075639;27;45489;-62
2022/05/16 05:41:10;;;;;;;;;20.67;18.67;;;;;19.38;68.98;100901.53;5076891;28;45936;-62
2022/05/16 05:43:36;;;;;;;;;17.33;17.33;;;;;19.37;69.05;100899.81;5059377;28;45233;-60
2022/05/16 05:46:04;;;;;;;;;23.00;18.33;;;;;19.39;69.08;100895.16;5074933;27;45572;-63
2022/05/16 05:48:29;;;;;;;;;18.00;17.33;;;;;19.43;68.32;100910.09;5075653;27;45678;-66
2022/05/16 05:50:55;;;;;;;;;19.67;19.00;;;;;19.52;68.09;100915.63;5072422;27;45586;-65
2022/05/16 05:53:20;;;;;;;;;21.67;19.00;;;;;19.58;67.75;100924.09;5076900;27;45460;-61
2022/05/16 05:55:47;;;;;;;;;19.00;19.00;;;;;19.60;66.97;100921.25;5075490;28;45535;-64
2022/05/16 05:58:14;;;;;;;;;17.67;17.67;;;;;19.60;66.73;100926.66;5076555;27;45658;-67
2022/05/16 06:00:41;;;;;;;;;18.67;16.67;;;;;19.68;66.30;100945.72;5077642;27;46120;-64
2022/05/16 06:03:06;;;;;;;;;22.00;21.00;;;;;19.59;66.67;100946.53;5092171;27;45429;-64
2022/05/16 06:05:32;;;;;;;;;14.00;14.00;;;;;19.63;66.86;100958.75;5076855;27;45328;-60
2022/05/16 06:07:58;;;;;;;;;19.00;16.33;;;;;19.64;66.82;100960.47;5076468;28;45364;-61
2022/05/16 06:10:24;;;;;;;;;17.67;15.67;;;;;19.72;66.66;100960.66;5075565;27;46199;-60
2022/05/16 06:12:50;;;;;;;;;21.00;18.67;;;;;19.73;66.79;100965.06;5070395;28;45849;-61
2022/05/16 06:15:16;;;;;;;;;21.67;18.00;;;;;19.76;66.60;100959.38;5077291;27;45455;-69
2022/05/16 06:17:43;;;;;;;;;19.67;19.00;;;;;19.77;66.00;100965.63;5074987;27;45577;-64
2022/05/16 06:20:11;;;;;;;;;20.00;18.00;;;;;19.78;65.60;100978.97;5076270;27;45581;-62
2022/05/16 06:22:38;;;;;;;;;19.33;17.00;;;;;19.71;65.26;100961.63;5076004;27;45491;-61
2022/05/16 06:27:55;;;;;;;;;19.33;16.67;;;;;19.88;65.35;100984.44;5055707;28;45707;-61
2022/05/16 06:30:21;;;;;;;;;18.33;17.00;;;;;19.87;65.25;100991.66;5068007;27;46265;-62
2022/05/16 06:32:47;;;;;;;;;22.33;20.33;;;;;19.87;65.36;100986.28;5088548;27;45233;-62
2022/05/16 06:35:13;;;;;;;;;17.67;17.00;;;;;19.85;65.06;100996.34;5095088;27;45388;-61
2022/05/16 06:37:38;;;;;;;;;19.67;17.00;;;;;19.87;65.41;101002.47;5097271;27;45527;-62
2022/05/16 06:40:05;;;;;;;;;20.67;17.00;;;;;19.86;65.25;100994.50;5097491;27;46000;-61
2022/05/16 06:42:31;;;;;;;;;18.67;18.67;;;;;19.92;65.13;101002.94;5084827;27;45266;-61
2022/05/16 06:44:57;;;;;;;;;17.33;16.67;;;;;19.92;64.53;101005.63;5072889;27;45487;-60
2022/05/16 06:47:23;;;;;;;;;16.67;14.67;;;;;19.91;64.20;101001.19;5076782;27;45486;-60
2022/05/16 06:49:49;;;;;;;;;14.00;14.00;;;;;19.96;64.10;101019.69;5075738;27;46133;-60
2022/05/16 06:52:16;;;;;;;;;18.67;17.67;;;;;20.01;63.76;101023.69;5080255;27;45325;-62
2022/05/16 06:54:42;;;;;;;;;17.00;15.00;;;;;20.03;63.77;101032.50;5085333;27;45357;-62
2022/05/16 06:57:07;;;;;;;;;16.67;15.67;;;;;20.01;63.57;101022.84;5075763;27;45432;-61
2022/05/16 06:59:33;;;;;;;;;16.00;12.33;;;;;20.01;63.64;101028.22;5075930;27;45737;-62
2022/05/16 07:01:58;;;;;;;;;17.00;14.00;;;;;20.00;62.91;101038.19;5076284;28;45416;-60
2022/05/16 07:04:24;;;;;;;;;12.00;12.00;;;;;19.95;62.77;101053.94;5055692;27;45399;-61
2022/05/16 07:06:49;;;;;;;;;19.67;18.00;;;;;19.97;63.23;101053.81;5074835;28;45586;-59
2022/05/16 07:09:15;;;;;;;;;15.00;15.00;;;;;19.97;62.67;101054.66;5075581;27;46107;-62
2022/05/16 07:11:40;;;;;;;;;17.00;15.00;;;;;19.98;62.77;101061.75;5086630;27;45475;-66
2022/05/16 07:14:05;;;;;;;;;16.00;15.00;;;;;19.98;61.95;101069.88;5090078;27;45794;-63
2022/05/16 07:16:31;;;;;;;;;15.33;14.67;;;;;19.95;61.94;101053.94;5073685;27;45425;-63
2022/05/16 07:18:57;;;;;;;;;13.00;11.33;;;;;20.04;61.64;101072.00;5076123;27;45512;-63
2022/05/16 07:21:22;;;;;;;;;13.00;11.00;;;;;20.04;60.97;101074.72;5094469;27;45334;-60
2022/05/16 07:23:47;;;;;;;;;15.67;12.33;;;;;20.06;60.73;101065.66;5075564;27;45475;-61
2022/05/16 07:28:57;;;;;;;;;12.67;12.67;;;;;20.17;60.66;101081.72;5074761;28;45447;-61
2022/05/16 07:31:22;;;;;;;;;13.67;13.33;;;;;20.28;60.59;101084.34;5052692;28;45488;-62
2022/05/16 07:33:48;;;;;;;;;15.67;13.33;;;;;20.30;59.98;101095.84;5073808;28;45480;-60
2022/05/16 07:36:13;;;;;;;;;12.00;11.33;;;;;20.33;60.17;101093.75;5074687;28;45264;-62
2022/05/16 07:38:39;;;;;;;;;13.67;13.67;;;;;20.40;60.05;101104.84;5071630;27;45576;-50
2022/05/16 07:41:04;;;;;;;;;14.67;10.00;;;;;20.51;59.12;101096.69;5072089;27;45948;-58
2022/05/16 07:43:30;;;;;;;;;10.33;10.33;;;;;20.64;59.52;101090.16;5070612;27;45322;-49
2022/05/16 07:45:56;;;;;;;;;11.67;11.00;;;;;20.74;57.91;101108.13;5075341;27;45373;-49
2022/05/16 07:48:21;;;;;;;;;9.00;9.00;;;;;20.77;58.72;101105.13;5074303;28;45936;-46
2022/05/16 07:50:48;;;;;;;;;9.00;9.00;;;;;20.82;57.68;101110.97;5074467;28;45472;-54
2022/05/16 07:53:14;;;;;;;;;11.67;10.00;;;;;20.85;57.75;101104.44;5075597;27;45432;-54
2022/05/16 07:55:43;;;;;;;;;17.33;12.00;;;;;20.92;58.38;101106.44;5075777;27;45338;-53
2022/05/16 07:58:08;;;;;;;;;10.67;9.67;;;;;21.07;57.75;101104.16;5073377;28;45471;-62
2022/05/16 08:00:34;;;;;;;;;9.00;7.00;;;;;21.11;57.00;101108.31;5072136;28;45689;-62
2022/05/16 08:02:59;;;;;;;;;13.00;12.33;;;;;21.07;56.63;101108.72;5077251;28;45254;-63
2022/05/16 08:05:25;;;;;;;;;8.00;8.00;;;;;21.05;56.06;101116.97;5095226;27;45557;-62
2022/05/16 08:10:39;;;;;;;;;12.00;11.00;;;;;21.10;56.28;101128.25;5059058;28;45339;-64
2022/05/16 08:13:08;;;;;;;;;9.00;8.00;;;;;21.10;56.45;101128.25;5066420;27;45347;-62
2022/05/16 08:15:36;;;;;;;;;13.33;9.00;;;;;21.09;56.14;101129.22;5078092;27;45584;-61
2022/05/16 08:18:09;;;;;;;;;11.67;11.00;;;;;21.11;56.03;101121.84;5078493;27;45524;-64
2022/05/16 08:20:37;;;;;;;;;11.33;9.67;;;;;21.17;55.49;101115.84;5076250;27;45422;-64
2022/05/16 08:23:04;;;;;;;;;8.00;8.00;;;;;21.30;55.63;101126.44;5077164;27;45415;-66
2022/05/16 08:25:29;;;;;;;;;10.67;9.67;;;;;21.31;55.33;101117.31;5077869;27;45664;-67
2022/05/16 08:27:55;;;;;;;;;9.33;9.33;;;;;21.38;55.38;101131.13;5058029;28;46112;-64
2022/05/16 08:30:22;;;;;;;;;11.00;8.67;;;;;21.45;55.60;101137.69;5076849;28;45464;-63
2022/05/16 08:32:48;;;;;;;;;11.67;10.00;;;;;21.59;55.17;101136.38;5067640;27;45406;-62
2022/05/16 08:35:14;;;;;;;;;12.00;11.00;;;;;21.65;54.99;101142.09;5070604;27;45670;-61
2022/05/16 08:40:54;;;;;;;;;12.00;10.33;;;;;21.62;54.32;101138.81;5067625;28;45516;-67
2022/05/16 08:43:38;;;;;;;;;12.00;8.00;;;;;21.62;53.93;101141.53;5075837;28;45318;-63
2022/05/16 08:46:17;;;;;;;;;5.67;5.67;;;;;21.61;54.31;101147.91;5079498;27;45357;-64
2022/05/16 08:48:47;;;;;;;;;7.33;7.33;;;;;21.70;53.91;101149.75;5078790;27;45392;-65
2022/05/16 08:51:21;;;;;;;;;9.33;8.00;;;;;21.70;53.74;101156.03;5078304;27;45430;-64
2022/05/16 08:54:24;;;;;;;;;7.00;5.67;;;;;21.84;53.62;101149.31;5066643;28;45384;-65
2022/05/16 08:56:50;;;;;;;;;9.00;8.00;;;;;21.97;53.16;101147.16;5035063;28;45430;-62
2022/05/16 08:59:21;;;;;;;;;8.33;7.33;;;;;22.08;52.34;101154.28;5053699;28;47514;-64
2022/05/16 09:01:59;;;;;;;;;10.25;6.75;;;;;22.10;52.71;101163.13;5058848;28;45332;-70
2022/05/16 09:05:02;;;;;;;;;6.75;6.75;;;;;22.09;52.47;101156.00;5068841;28;45546;-61
2022/05/16 09:07:52;;;;;;;;;14.00;7.33;;;;;21.98;52.96;101164.25;5068899;28;45547;-66
2022/05/16 09:10:30;;;;;;;;;11.00;7.00;;;;;21.81;53.60;101182.09;5071577;28;45456;-64
2022/05/16 09:13:15;;;;;;;;;8.67;6.00;;;;;21.66;53.90;101184.41;5092729;27;45501;-63
2022/05/16 09:16:17;;;;;;;;;8.50;8.25;;;;;21.61;54.14;101189.38;5076519;28;45375;-66
2022/05/16 09:18:58;;;;;;;;;7.67;7.67;;;;;21.59;54.32;101191.38;5077614;27;45478;-67
2022/05/16 09:21:48;;;;;;;;;7.33;7.33;;;;;21.58;54.27;101189.66;5078416;28;45328;-67
2022/05/16 09:24:25;;;;;;;;;8.67;8.67;;;;;21.65;54.04;101185.41;5077746;27;47135;-68
2022/05/16 09:27:08;;;;;;;;;9.00;7.00;;;;;21.76;54.28;101185.25;5076966;28;45223;-63
2022/05/16 09:29:41;;;;;;;;;13.33;12.33;;;;;21.84;53.65;101199.91;5079314;27;45313;-63
2022/05/16 09:32:25;;;;;;;;;13.00;10.33;;;;;21.82;53.39;101197.34;5076407;28;45488;-65
2022/05/16 09:34:50;;;;;;;;;11.00;10.33;;;;;21.81;53.84;101198.34;5073425;28;45513;-63
2022/05/16 09:37:16;;;;;;;;;8.00;6.67;;;;;21.80;53.62;101188.53;5075204;27;45499;-68
2022/05/16 09:39:42;;;;;;;;;6.00;6.00;;;;;21.93;53.29;101210.75;5076893;28;45829;-63
2022/05/16 09:42:20;;;;;;;;;9.00;7.67;;;;;22.30;51.87;101208.13;5077409;27;45538;-64
2022/05/16 09:44:53;;;;;;;;;7.25;6.75;;;;;22.68;51.63;101211.72;5075107;27;45382;-61
2022/05/16 09:47:32;;;;;;;;;9.00;7.50;;;;;22.92;50.90;101214.78;5075499;27;45632;-66
2022/05/16 09:50:28;;;;;;;;;7.75;5.50;;;;;23.25;50.66;101210.56;5072319;28;45467;-63
2022/05/16 09:53:09;;;;;;;;;7.50;7.50;;;;;23.70;49.71;101220.56;5076138;27;45313;-65
2022/05/16 09:55:53;;;;;;;;;4.75;4.75;;;;;24.15;49.10;101214.13;5076881;27;45677;-65
2022/05/16 09:58:28;;;;;;;;;5.75;4.75;;;;;24.48;46.75;101215.22;5074795;28;45502;-62
2022/05/16 10:01:02;;;;;;;;;7.25;6.00;;;;;24.79;46.44;101209.25;5076855;27;45550;-66
2022/05/16 10:03:29;;;;;;;;;8.25;8.25;;;;;25.15;45.70;101208.06;5076680;27;45759;-63
2022/05/16 10:05:57;;;;;;;;;7.75;7.75;;;;;25.58;45.39;101215.13;5073009;27;45437;-65
2022/05/16 10:08:31;;;;;;;;;7.00;7.00;;;;;25.90;44.58;101218.06;5074521;28;45321;-63
2022/05/16 10:11:00;;;;;;;;;9.50;7.00;;;;;26.01;43.87;101212.28;5075752;28;45630;-66
2022/05/16 10:13:26;;;;;;;;;6.75;6.75;;;;;26.10;44.67;101203.06;5075169;27;46221;-65
2022/05/16 10:15:54;;;;;;;;;6.25;6.25;;;;;26.33;43.57;101223.16;5076059;27;45374;-64
2022/05/16 10:18:23;;;;;;;;;7.80;6.80;;;;;26.19;42.59;101212.94;5088217;27;45476;-62
2022/05/16 10:20:56;;;;;;;;;6.50;5.50;;;;;25.91;43.41;101236.13;5067323;27;45413;-65
2022/05/16 10:23:26;;;;;;;;;8.75;7.50;;;;;25.82;43.58;101230.69;5069597;28;46309;-66
2022/05/16 10:25:55;;;;;;;;;7.20;6.60;;;;;25.71;43.41;101232.88;5073073;28;45514;-63
2022/05/16 10:28:28;;;;;;;;;8.00;6.80;;;;;25.51;43.71;101229.56;5077114;28;45587;-63
2022/05/16 10:33:41;;;;;;;;;9.00;7.25;;;;;25.05;44.89;101231.84;5062952;28;45736;-65
2022/05/16 10:36:34;;;;;;;;;8.25;8.25;;;;;24.80;45.35;101224.56;5076697;27;45528;-65
2022/05/16 10:39:13;;;;;;;;;6.50;6.50;;;;;24.60;45.75;101232.94;5076414;27;45333;-63
2022/05/16 10:42:05;;;;;;;;;4.75;4.75;;;;;24.46;45.79;101236.25;5074048;28;45422;-65
2022/05/16 10:44:55;;;;;;;;;9.50;7.00;;;;;24.40;45.67;101235.06;5075437;27;45648;-64
2022/05/16 10:47:31;;;;;;;;;4.75;4.25;;;;;24.31;46.07;101230.56;5072857;27;45497;-65
2022/05/16 10:50:15;;;;;;;;;7.50;6.00;;;;;24.13;46.21;101217.00;5075949;27;45793;-66
2022/05/16 10:52:56;;;;;;;;;10.25;6.00;;;;;24.07;46.22;101223.06;5076134;27;45490;-68
2022/05/16 10:55:22;;;;;;;;;6.75;6.75;;;;;24.06;45.97;101218.63;5072229;28;45389;-65
2022/05/16 10:57:56;;;;;;;;;6.00;6.00;;;;;24.09;45.95;101212.91;5076058;28;45246;-66
2022/05/16 11:00:32;;;;;;;;;7.75;7.75;;;;;24.22;45.68;101226.06;5075266;28;45661;-65
2022/05/16 11:03:01;;;;;;;;;7.25;7.00;;;;;24.36;45.29;101222.81;5074670;27;45485;-64
2022/05/16 11:05:39;;;;;;;;;10.25;6.75;;;;;24.40;44.74;101234.19;5074834;27;45574;-66
2022/05/16 11:08:23;;;;;;;;;5.80;5.80;;;;;24.50;45.00;101218.63;5091645;27;45496;-66
2022/05/16 11:11:40;;;;;;;;;6.25;6.25;;;;;24.40;44.67;101213.31;5076943;27;45444;-65
2022/05/16 11:14:27;;;;;;;;;5.25;5.25;;;;;24.33;44.42;101217.66;5075706;28;45479;-63
2022/05/16 11:17:02;;;;;;;;;7.00;6.25;;;;;24.35;45.39;101220.22;5081829;27;45360;-66
2022/05/16 11:19:42;;;;;;;;;11.00;7.25;;;;;24.42;44.40;101226.72;5076090;28;45239;-66
2022/05/16 11:22:21;;;;;;;;;6.25;6.25;;;;;24.41;44.04;101215.00;5073651;28;45930;-65
2022/05/16 11:24:49;;;;;;;;;8.50;6.25;;;;;24.33;44.13;101225.81;5074134;28;45407;-64
2022/05/16 11:27:42;;;;;;;;;6.75;6.00;;;;;24.40;43.64;101218.75;5082857;27;46510;-63
2022/05/16 11:30:31;;;;;;;;;5.40;4.20;;;;;24.44;44.18;101213.81;5071921;28;45407;-65
2022/05/16 11:33:10;;;;;;;;;4.00;4.00;;;;;24.63;43.51;101220.91;5076637;27;45366;-62
2022/05/16 11:35:46;;;;;;;;;6.75;5.00;;;;;24.82;42.71;101223.38;5075341;28;45611;-63
2022/05/16 11:38:26;;;;;;;;;4.25;4.25;;;;;25.01;42.13;101216.88;5074473;27;46338;-64
2022/05/16 11:41:15;;;;;;;;;5.00;4.60;;;;;24.96;42.56;101224.63;5073789;28;45390;-61
2022/05/16 11:43:45;;;;;;;;;4.00;4.00;;;;;24.83;42.34;101222.34;5076937;28;45388;-63
2022/05/16 11:46:31;;;;;;;;;5.00;4.50;;;;;24.88;42.60;101217.31;5077198;27;45365;-61
2022/05/16 11:49:34;;;;;;;;;3.75;3.75;;;;;24.65;42.70;101222.47;5075664;27;45890;-65
2022/05/16 11:52:18;;;;;;;;;5.00;3.00;;;;;24.58;42.50;101210.50;5062705;28;45375;-64
2022/05/16 11:55:00;;;;;;;;;5.00;5.00;;;;;24.84;42.26;101207.75;5074439;28;45546;-62
2022/05/16 12:03:06;;;;;;;;;4.60;4.40;;;;;25.23;41.41;101199.06;5076137;27;45453;-63
2022/05/16 12:05:39;;;;;;;;;2.20;2.20;;;;;25.44;40.67;101195.88;5075483;28;45360;-63